KMFV/MFV METAR and TAF weather

Enter ICAO airport designator
Station Type Date Time Source
KMFV METAR 2024/07/24 11:35 UTC NOAA

KMFV 241135Z AUTO 23007KT 10SM SCT032 BKN041 BKN055 23/22 A3013 RMK AO2 T02320217


Station Type Date Time Source
KMFV Decoded METAR 2024/07/24 11:35 UTC NOAA

Melfa / Accomack Airport, VA, United States (KMFV) 37-39N 075-46W
Jul 24, 2024 - 07:35 AM EDT / 2024.07.24 1135 UTC
Wind: from the SW (230 degrees) at 8 MPH (7 KT):0
Visibility: 10 mile(s):0
Sky conditions: mostly cloudy
Temperature: 73.8 F (23.2 C)
Dew Point: 71.1 F (21.7 C)
Relative Humidity: 91%
Pressure (altimeter): 30.13 in. Hg (1020 hPa)
ob: KMFV 241135Z AUTO 23007KT 10SM SCT032 BKN041 BKN055 23/22 A3013 RMK AO2 T02320217
cycle: 11

Station Type Date Time Source
KMFV TAF UTC NOAA

Error!

Example: see airport list